sensor_id;sensor_type;location;lat;lon;timestamp;P1;durP1;ratioP1;P2;durP2;ratioP2
74328;SDS011;62745;51.060;13.786;2023-04-25T00:01:13;3.70;;;1.90;;
74328;SDS011;62745;51.060;13.786;2023-04-25T00:03:38;3.30;;;1.92;;
74328;SDS011;62745;51.060;13.786;2023-04-25T00:06:04;3.75;;;1.55;;
74328;SDS011;62745;51.060;13.786;2023-04-25T00:08:31;3.90;;;1.92;;
74328;SDS011;62745;51.060;13.786;2023-04-25T00:10:57;3.28;;;1.67;;
74328;SDS011;62745;51.060;13.786;2023-04-25T00:13:23;5.30;;;2.08;;
74328;SDS011;62745;51.060;13.786;2023-04-25T00:15:50;4.88;;;2.38;;
74328;SDS011;62745;51.060;13.786;2023-04-25T00:18:15;5.65;;;1.92;;
74328;SDS011;62745;51.060;13.786;2023-04-25T00:20:40;4.03;;;1.87;;
74328;SDS011;62745;51.060;13.786;2023-04-25T00:23:15;3.20;;;1.65;;
74328;SDS011;62745;51.060;13.786;2023-04-25T00:25:42;5.80;;;2.00;;
74328;SDS011;62745;51.060;13.786;2023-04-25T00:28:08;3.88;;;1.83;;
74328;SDS011;62745;51.060;13.786;2023-04-25T00:30:33;4.50;;;1.83;;
74328;SDS011;62745;51.060;13.786;2023-04-25T00:32:59;4.07;;;1.80;;
74328;SDS011;62745;51.060;13.786;2023-04-25T00:35:24;4.82;;;2.20;;
74328;SDS011;62745;51.060;13.786;2023-04-25T00:37:49;5.43;;;2.47;;
74328;SDS011;62745;51.060;13.786;2023-04-25T00:40:15;4.80;;;2.60;;
74328;SDS011;62745;51.060;13.786;2023-04-25T00:42:40;6.17;;;2.30;;
74328;SDS011;62745;51.060;13.786;2023-04-25T00:45:06;5.50;;;2.45;;
74328;SDS011;62745;51.060;13.786;2023-04-25T00:47:34;5.18;;;2.60;;
74328;SDS011;62745;51.060;13.786;2023-04-25T00:50:00;8.48;;;2.92;;
74328;SDS011;62745;51.060;13.786;2023-04-25T00:52:26;4.77;;;2.63;;
74328;SDS011;62745;51.060;13.786;2023-04-25T00:54:51;5.90;;;2.40;;
74328;SDS011;62745;51.060;13.786;2023-04-25T00:57:16;7.17;;;2.70;;
74328;SDS011;62745;51.060;13.786;2023-04-25T00:59:42;5.53;;;2.40;;
74328;SDS011;62745;51.060;13.786;2023-04-25T01:02:10;7.25;;;2.80;;
74328;SDS011;62745;51.060;13.786;2023-04-25T01:04:35;5.28;;;2.63;;
74328;SDS011;62745;51.060;13.786;2023-04-25T01:07:01;6.32;;;2.72;;
74328;SDS011;62745;51.060;13.786;2023-04-25T01:09:27;4.90;;;2.70;;
74328;SDS011;62745;51.060;13.786;2023-04-25T01:11:54;6.80;;;2.90;;
74328;SDS011;62745;51.060;13.786;2023-04-25T01:14:20;7.00;;;2.88;;
74328;SDS011;62745;51.060;13.786;2023-04-25T01:16:45;5.13;;;2.70;;
74328;SDS011;62745;51.060;13.786;2023-04-25T01:19:11;7.28;;;2.63;;
74328;SDS011;62745;51.060;13.786;2023-04-25T01:21:37;9.23;;;3.50;;
74328;SDS011;62745;51.060;13.786;2023-04-25T01:24:02;7.22;;;3.47;;
74328;SDS011;62745;51.060;13.786;2023-04-25T01:26:28;6.95;;;3.33;;
74328;SDS011;62745;51.060;13.786;2023-04-25T01:28:54;5.68;;;2.92;;
74328;SDS011;62745;51.060;13.786;2023-04-25T01:31:19;6.95;;;2.92;;
74328;SDS011;62745;51.060;13.786;2023-04-25T01:33:45;6.30;;;3.42;;
74328;SDS011;62745;51.060;13.786;2023-04-25T01:36:10;9.27;;;3.30;;
74328;SDS011;62745;51.060;13.786;2023-04-25T01:38:36;8.57;;;3.70;;
74328;SDS011;62745;51.060;13.786;2023-04-25T01:41:01;6.27;;;2.90;;
74328;SDS011;62745;51.060;13.786;2023-04-25T01:43:26;7.07;;;3.38;;
74328;SDS011;62745;51.060;13.786;2023-04-25T01:45:52;8.55;;;3.28;;
74328;SDS011;62745;51.060;13.786;2023-04-25T01:48:17;5.97;;;2.70;;
74328;SDS011;62745;51.060;13.786;2023-04-25T01:50:43;6.50;;;2.93;;
74328;SDS011;62745;51.060;13.786;2023-04-25T01:53:09;7.28;;;3.20;;
74328;SDS011;62745;51.060;13.786;2023-04-25T01:55:37;7.32;;;3.17;;
74328;SDS011;62745;51.060;13.786;2023-04-25T01:58:03;7.88;;;3.72;;
74328;SDS011;62745;51.060;13.786;2023-04-25T02:00:33;6.05;;;3.05;;
74328;SDS011;62745;51.060;13.786;2023-04-25T02:02:59;7.40;;;3.27;;
74328;SDS011;62745;51.060;13.786;2023-04-25T02:05:24;5.97;;;2.87;;
74328;SDS011;62745;51.060;13.786;2023-04-25T02:07:49;6.00;;;2.80;;
74328;SDS011;62745;51.060;13.786;2023-04-25T02:10:14;6.30;;;2.90;;
74328;SDS011;62745;51.060;13.786;2023-04-25T02:12:40;5.75;;;3.22;;
74328;SDS011;62745;51.060;13.786;2023-04-25T02:15:05;7.47;;;3.17;;
74328;SDS011;62745;51.060;13.786;2023-04-25T02:17:31;7.53;;;3.30;;
74328;SDS011;62745;51.060;13.786;2023-04-25T02:19:56;6.43;;;3.23;;
74328;SDS011;62745;51.060;13.786;2023-04-25T02:22:21;8.00;;;3.30;;
74328;SDS011;62745;51.060;13.786;2023-04-25T02:24:47;8.07;;;3.07;;
74328;SDS011;62745;51.060;13.786;2023-04-25T02:27:12;8.10;;;3.60;;
74328;SDS011;62745;51.060;13.786;2023-04-25T02:29:37;6.50;;;3.07;;
74328;SDS011;62745;51.060;13.786;2023-04-25T02:32:03;5.88;;;3.22;;
74328;SDS011;62745;51.060;13.786;2023-04-25T02:34:28;5.60;;;3.05;;
74328;SDS011;62745;51.060;13.786;2023-04-25T02:36:54;7.17;;;3.10;;
74328;SDS011;62745;51.060;13.786;2023-04-25T02:39:19;9.63;;;3.28;;
74328;SDS011;62745;51.060;13.786;2023-04-25T02:41:47;8.40;;;3.22;;
74328;SDS011;62745;51.060;13.786;2023-04-25T02:44:12;6.97;;;2.97;;
74328;SDS011;62745;51.060;13.786;2023-04-25T02:46:37;7.57;;;2.97;;
74328;SDS011;62745;51.060;13.786;2023-04-25T02:49:02;7.13;;;3.23;;
74328;SDS011;62745;51.060;13.786;2023-04-25T02:51:28;6.25;;;3.15;;
74328;SDS011;62745;51.060;13.786;2023-04-25T02:53:53;9.17;;;3.50;;
74328;SDS011;62745;51.060;13.786;2023-04-25T02:56:18;6.67;;;3.00;;
74328;SDS011;62745;51.060;13.786;2023-04-25T02:58:43;6.90;;;3.50;;
74328;SDS011;62745;51.060;13.786;2023-04-25T03:01:10;6.55;;;2.70;;
74328;SDS011;62745;51.060;13.786;2023-04-25T03:03:35;7.53;;;2.92;;
74328;SDS011;62745;51.060;13.786;2023-04-25T03:06:00;7.43;;;3.10;;
74328;SDS011;62745;51.060;13.786;2023-04-25T03:08:25;6.40;;;3.43;;
74328;SDS011;62745;51.060;13.786;2023-04-25T03:10:54;9.80;;;3.15;;
74328;SDS011;62745;51.060;13.786;2023-04-25T03:13:20;7.32;;;3.20;;
74328;SDS011;62745;51.060;13.786;2023-04-25T03:15:45;5.73;;;3.10;;
74328;SDS011;62745;51.060;13.786;2023-04-25T03:18:11;6.10;;;2.87;;
74328;SDS011;62745;51.060;13.786;2023-04-25T03:20:36;6.87;;;3.60;;
74328;SDS011;62745;51.060;13.786;2023-04-25T03:23:01;6.10;;;2.70;;
74328;SDS011;62745;51.060;13.786;2023-04-25T03:25:26;5.43;;;2.87;;
74328;SDS011;62745;51.060;13.786;2023-04-25T03:27:51;7.87;;;2.70;;
74328;SDS011;62745;51.060;13.786;2023-04-25T03:30:17;7.57;;;3.30;;
74328;SDS011;62745;51.060;13.786;2023-04-25T03:32:42;9.90;;;3.30;;
74328;SDS011;62745;51.060;13.786;2023-04-25T03:35:07;13.03;;;4.03;;
74328;SDS011;62745;51.060;13.786;2023-04-25T03:37:33;6.57;;;3.28;;
74328;SDS011;62745;51.060;13.786;2023-04-25T03:39:58;7.60;;;3.07;;
74328;SDS011;62745;51.060;13.786;2023-04-25T03:42:23;6.67;;;3.07;;
74328;SDS011;62745;51.060;13.786;2023-04-25T03:44:49;7.70;;;3.30;;
74328;SDS011;62745;51.060;13.786;2023-04-25T03:47:14;5.53;;;2.88;;
74328;SDS011;62745;51.060;13.786;2023-04-25T03:49:40;6.90;;;3.70;;
74328;SDS011;62745;51.060;13.786;2023-04-25T03:52:06;8.10;;;3.30;;
74328;SDS011;62745;51.060;13.786;2023-04-25T03:54:31;6.97;;;3.45;;
74328;SDS011;62745;51.060;13.786;2023-04-25T03:56:57;8.23;;;3.43;;
74328;SDS011;62745;51.060;13.786;2023-04-25T03:59:22;9.67;;;3.43;;
74328;SDS011;62745;51.060;13.786;2023-04-25T04:01:47;8.70;;;3.60;;
74328;SDS011;62745;51.060;13.786;2023-04-25T04:04:13;9.80;;;4.25;;
74328;SDS011;62745;51.060;13.786;2023-04-25T04:06:38;6.87;;;3.50;;
74328;SDS011;62745;51.060;13.786;2023-04-25T04:09:03;7.33;;;3.33;;
74328;SDS011;62745;51.060;13.786;2023-04-25T04:11:28;6.17;;;3.13;;
74328;SDS011;62745;51.060;13.786;2023-04-25T04:13:54;7.67;;;3.33;;
74328;SDS011;62745;51.060;13.786;2023-04-25T04:16:19;6.40;;;3.40;;
74328;SDS011;62745;51.060;13.786;2023-04-25T04:18:45;6.75;;;3.28;;
74328;SDS011;62745;51.060;13.786;2023-04-25T04:21:11;8.68;;;3.28;;
74328;SDS011;62745;51.060;13.786;2023-04-25T04:23:36;11.20;;;3.90;;
74328;SDS011;62745;51.060;13.786;2023-04-25T04:26:02;7.75;;;3.45;;
74328;SDS011;62745;51.060;13.786;2023-04-25T04:28:27;6.63;;;3.50;;
74328;SDS011;62745;51.060;13.786;2023-04-25T04:30:52;10.83;;;3.70;;
74328;SDS011;62745;51.060;13.786;2023-04-25T04:33:18;6.63;;;3.03;;
74328;SDS011;62745;51.060;13.786;2023-04-25T04:35:46;6.40;;;3.17;;
74328;SDS011;62745;51.060;13.786;2023-04-25T04:38:12;8.63;;;3.65;;
74328;SDS011;62745;51.060;13.786;2023-04-25T04:40:39;9.07;;;3.50;;
74328;SDS011;62745;51.060;13.786;2023-04-25T04:43:05;10.85;;;4.25;;
74328;SDS011;62745;51.060;13.786;2023-04-25T04:45:31;11.63;;;3.73;;
74328;SDS011;62745;51.060;13.786;2023-04-25T04:47:56;7.33;;;3.83;;
74328;SDS011;62745;51.060;13.786;2023-04-25T04:50:21;9.13;;;3.70;;
74328;SDS011;62745;51.060;13.786;2023-04-25T04:52:46;6.40;;;3.47;;
74328;SDS011;62745;51.060;13.786;2023-04-25T04:55:12;6.37;;;3.63;;
74328;SDS011;62745;51.060;13.786;2023-04-25T04:57:37;8.17;;;4.23;;
74328;SDS011;62745;51.060;13.786;2023-04-25T05:00:03;8.27;;;4.15;;
74328;SDS011;62745;51.060;13.786;2023-04-25T05:02:30;11.50;;;4.25;;
74328;SDS011;62745;51.060;13.786;2023-04-25T05:04:55;7.93;;;4.13;;
74328;SDS011;62745;51.060;13.786;2023-04-25T05:07:21;7.25;;;3.67;;
74328;SDS011;62745;51.060;13.786;2023-04-25T05:09:46;7.90;;;3.40;;
74328;SDS011;62745;51.060;13.786;2023-04-25T05:12:11;9.77;;;4.43;;
74328;SDS011;62745;51.060;13.786;2023-04-25T05:14:37;8.65;;;3.75;;
74328;SDS011;62745;51.060;13.786;2023-04-25T05:17:02;8.95;;;4.18;;
74328;SDS011;62745;51.060;13.786;2023-04-25T05:19:31;9.43;;;4.63;;
74328;SDS011;62745;51.060;13.786;2023-04-25T05:21:57;9.05;;;4.15;;
74328;SDS011;62745;51.060;13.786;2023-04-25T05:24:22;14.13;;;4.03;;
74328;SDS011;62745;51.060;13.786;2023-04-25T05:26:47;8.10;;;3.87;;
74328;SDS011;62745;51.060;13.786;2023-04-25T05:29:13;13.37;;;3.70;;
74328;SDS011;62745;51.060;13.786;2023-04-25T05:31:38;6.70;;;3.73;;
74328;SDS011;62745;51.060;13.786;2023-04-25T05:34:03;6.90;;;3.63;;
74328;SDS011;62745;51.060;13.786;2023-04-25T05:36:28;9.03;;;3.87;;
74328;SDS011;62745;51.060;13.786;2023-04-25T05:38:54;7.57;;;4.07;;
74328;SDS011;62745;51.060;13.786;2023-04-25T05:41:19;9.63;;;4.07;;
74328;SDS011;62745;51.060;13.786;2023-04-25T05:43:45;9.05;;;4.55;;
74328;SDS011;62745;51.060;13.786;2023-04-25T05:46:12;7.35;;;3.53;;
74328;SDS011;62745;51.060;13.786;2023-04-25T05:48:37;7.60;;;3.58;;
74328;SDS011;62745;51.060;13.786;2023-04-25T05:51:03;9.10;;;4.05;;
74328;SDS011;62745;51.060;13.786;2023-04-25T05:53:28;7.93;;;3.60;;
74328;SDS011;62745;51.060;13.786;2023-04-25T05:55:54;11.63;;;4.00;;
74328;SDS011;62745;51.060;13.786;2023-04-25T05:58:19;8.35;;;3.45;;
74328;SDS011;62745;51.060;13.786;2023-04-25T06:00:45;9.02;;;4.07;;
74328;SDS011;62745;51.060;13.786;2023-04-25T06:03:11;9.43;;;3.90;;
74328;SDS011;62745;51.060;13.786;2023-04-25T06:05:37;9.65;;;3.55;;
74328;SDS011;62745;51.060;13.786;2023-04-25T06:08:02;8.30;;;3.30;;
74328;SDS011;62745;51.060;13.786;2023-04-25T06:10:28;9.13;;;3.85;;
74328;SDS011;62745;51.060;13.786;2023-04-25T06:12:53;8.57;;;3.43;;
74328;SDS011;62745;51.060;13.786;2023-04-25T06:15:18;9.03;;;3.23;;
74328;SDS011;62745;51.060;13.786;2023-04-25T06:17:43;9.00;;;4.10;;
74328;SDS011;62745;51.060;13.786;2023-04-25T06:20:09;7.60;;;3.70;;
74328;SDS011;62745;51.060;13.786;2023-04-25T06:22:34;8.88;;;3.67;;
74328;SDS011;62745;51.060;13.786;2023-04-25T06:25:00;7.53;;;3.97;;
74328;SDS011;62745;51.060;13.786;2023-04-25T06:27:25;10.70;;;3.95;;
74328;SDS011;62745;51.060;13.786;2023-04-25T06:29:51;11.50;;;4.13;;
74328;SDS011;62745;51.060;13.786;2023-04-25T06:32:16;7.60;;;4.03;;
74328;SDS011;62745;51.060;13.786;2023-04-25T06:34:43;8.13;;;3.75;;
74328;SDS011;62745;51.060;13.786;2023-04-25T06:37:08;9.10;;;3.37;;
74328;SDS011;62745;51.060;13.786;2023-04-25T06:39:33;9.83;;;4.00;;
74328;SDS011;62745;51.060;13.786;2023-04-25T06:41:58;9.03;;;3.13;;
74328;SDS011;62745;51.060;13.786;2023-04-25T06:44:24;7.57;;;3.20;;
74328;SDS011;62745;51.060;13.786;2023-04-25T06:46:51;5.28;;;3.58;;
74328;SDS011;62745;51.060;13.786;2023-04-25T06:49:16;10.45;;;3.67;;
74328;SDS011;62745;51.060;13.786;2023-04-25T06:51:41;8.60;;;4.00;;
74328;SDS011;62745;51.060;13.786;2023-04-25T06:54:07;10.40;;;3.70;;
74328;SDS011;62745;51.060;13.786;2023-04-25T06:56:32;7.63;;;3.70;;
74328;SDS011;62745;51.060;13.786;2023-04-25T06:58:57;10.10;;;3.87;;
74328;SDS011;62745;51.060;13.786;2023-04-25T07:01:23;8.23;;;3.60;;
74328;SDS011;62745;51.060;13.786;2023-04-25T07:03:48;6.13;;;3.00;;
74328;SDS011;62745;51.060;13.786;2023-04-25T07:06:13;9.57;;;3.60;;
74328;SDS011;62745;51.060;13.786;2023-04-25T07:08:39;9.03;;;3.23;;
74328;SDS011;62745;51.060;13.786;2023-04-25T07:11:04;7.17;;;3.00;;
74328;SDS011;62745;51.060;13.786;2023-04-25T07:13:29;7.83;;;3.17;;
74328;SDS011;62745;51.060;13.786;2023-04-25T07:15:54;11.18;;;3.63;;
74328;SDS011;62745;51.060;13.786;2023-04-25T07:18:20;8.93;;;3.55;;
74328;SDS011;62745;51.060;13.786;2023-04-25T07:20:45;8.23;;;3.10;;
74328;SDS011;62745;51.060;13.786;2023-04-25T07:23:11;7.77;;;3.27;;
74328;SDS011;62745;51.060;13.786;2023-04-25T07:25:36;6.95;;;2.85;;
74328;SDS011;62745;51.060;13.786;2023-04-25T07:28:01;4.77;;;2.97;;
74328;SDS011;62745;51.060;13.786;2023-04-25T07:30:27;8.05;;;3.17;;
74328;SDS011;62745;51.060;13.786;2023-04-25T07:32:52;11.10;;;3.63;;
74328;SDS011;62745;51.060;13.786;2023-04-25T07:35:18;8.00;;;3.40;;
74328;SDS011;62745;51.060;13.786;2023-04-25T07:37:43;5.47;;;2.40;;
74328;SDS011;62745;51.060;13.786;2023-04-25T07:40:08;5.67;;;2.97;;
74328;SDS011;62745;51.060;13.786;2023-04-25T07:42:34;6.40;;;2.20;;
74328;SDS011;62745;51.060;13.786;2023-04-25T07:45:00;5.95;;;3.30;;
74328;SDS011;62745;51.060;13.786;2023-04-25T07:47:25;6.15;;;3.13;;
74328;SDS011;62745;51.060;13.786;2023-04-25T07:49:51;5.70;;;2.40;;
74328;SDS011;62745;51.060;13.786;2023-04-25T07:52:16;6.67;;;3.27;;
74328;SDS011;62745;51.060;13.786;2023-04-25T07:54:41;4.40;;;2.20;;
74328;SDS011;62745;51.060;13.786;2023-04-25T07:57:06;7.60;;;2.60;;
74328;SDS011;62745;51.060;13.786;2023-04-25T07:59:32;6.05;;;2.65;;
74328;SDS011;62745;51.060;13.786;2023-04-25T08:01:57;7.88;;;2.10;;
74328;SDS011;62745;51.060;13.786;2023-04-25T08:04:23;6.50;;;2.25;;
74328;SDS011;62745;51.060;13.786;2023-04-25T08:06:48;5.15;;;2.33;;
74328;SDS011;62745;51.060;13.786;2023-04-25T08:09:15;6.47;;;2.25;;
74328;SDS011;62745;51.060;13.786;2023-04-25T08:11:40;6.53;;;2.65;;
74328;SDS011;62745;51.060;13.786;2023-04-25T08:14:06;5.65;;;2.65;;
74328;SDS011;62745;51.060;13.786;2023-04-25T08:16:31;8.20;;;2.30;;
74328;SDS011;62745;51.060;13.786;2023-04-25T08:18:57;6.53;;;2.27;;
74328;SDS011;62745;51.060;13.786;2023-04-25T08:21:22;5.33;;;1.97;;
74328;SDS011;62745;51.060;13.786;2023-04-25T08:23:47;5.77;;;2.60;;
74328;SDS011;62745;51.060;13.786;2023-04-25T08:26:12;8.03;;;2.37;;
74328;SDS011;62745;51.060;13.786;2023-04-25T08:28:38;4.70;;;2.50;;
74328;SDS011;62745;51.060;13.786;2023-04-25T08:31:03;4.20;;;2.57;;
74328;SDS011;62745;51.060;13.786;2023-04-25T08:33:29;5.85;;;2.20;;
74328;SDS011;62745;51.060;13.786;2023-04-25T08:35:54;6.75;;;2.10;;
74328;SDS011;62745;51.060;13.786;2023-04-25T08:38:20;6.25;;;2.35;;
74328;SDS011;62745;51.060;13.786;2023-04-25T08:40:46;4.38;;;2.03;;
74328;SDS011;62745;51.060;13.786;2023-04-25T08:43:15;5.68;;;2.00;;
74328;SDS011;62745;51.060;13.786;2023-04-25T08:45:43;6.43;;;2.25;;
74328;SDS011;62745;51.060;13.786;2023-04-25T08:48:13;5.38;;;2.33;;
74328;SDS011;62745;51.060;13.786;2023-04-25T08:50:55;4.70;;;2.25;;
74328;SDS011;62745;51.060;13.786;2023-04-25T08:53:22;8.57;;;3.10;;
74328;SDS011;62745;51.060;13.786;2023-04-25T08:55:52;8.20;;;2.88;;
74328;SDS011;62745;51.060;13.786;2023-04-25T08:58:19;7.20;;;2.67;;
74328;SDS011;62745;51.060;13.786;2023-04-25T09:00:45;5.60;;;2.65;;
74328;SDS011;62745;51.060;13.786;2023-04-25T09:03:12;6.70;;;2.70;;
74328;SDS011;62745;51.060;13.786;2023-04-25T09:05:37;4.97;;;2.22;;
74328;SDS011;62745;51.060;13.786;2023-04-25T09:08:05;5.25;;;2.75;;
74328;SDS011;62745;51.060;13.786;2023-04-25T09:10:31;6.80;;;2.75;;
74328;SDS011;62745;51.060;13.786;2023-04-25T09:13:06;6.47;;;3.17;;
74328;SDS011;62745;51.060;13.786;2023-04-25T09:15:52;6.50;;;2.78;;
74328;SDS011;62745;51.060;13.786;2023-04-25T09:18:25;9.63;;;2.95;;
74328;SDS011;62745;51.060;13.786;2023-04-25T09:20:51;6.63;;;2.72;;
74328;SDS011;62745;51.060;13.786;2023-04-25T09:23:18;7.90;;;3.00;;
74328;SDS011;62745;51.060;13.786;2023-04-25T09:25:46;7.28;;;3.22;;
74328;SDS011;62745;51.060;13.786;2023-04-25T09:28:13;6.07;;;3.65;;
74328;SDS011;62745;51.060;13.786;2023-04-25T09:30:38;6.82;;;3.45;;
74328;SDS011;62745;51.060;13.786;2023-04-25T09:33:04;5.83;;;3.13;;
74328;SDS011;62745;51.060;13.786;2023-04-25T09:35:41;6.50;;;3.03;;
74328;SDS011;62745;51.060;13.786;2023-04-25T09:38:08;6.95;;;3.33;;
74328;SDS011;62745;51.060;13.786;2023-04-25T09:40:41;10.10;;;3.47;;
74328;SDS011;62745;51.060;13.786;2023-04-25T09:43:14;6.10;;;3.55;;
74328;SDS011;62745;51.060;13.786;2023-04-25T09:45:44;9.32;;;4.53;;
74328;SDS011;62745;51.060;13.786;2023-04-25T09:48:10;9.13;;;3.70;;
74328;SDS011;62745;51.060;13.786;2023-04-25T09:50:36;8.43;;;3.42;;
74328;SDS011;62745;51.060;13.786;2023-04-25T09:53:02;8.43;;;4.15;;
74328;SDS011;62745;51.060;13.786;2023-04-25T09:55:29;12.38;;;3.85;;
74328;SDS011;62745;51.060;13.786;2023-04-25T09:57:54;5.75;;;3.08;;
74328;SDS011;62745;51.060;13.786;2023-04-25T10:00:26;7.25;;;3.25;;
74328;SDS011;62745;51.060;13.786;2023-04-25T10:02:53;7.47;;;3.90;;
74328;SDS011;62745;51.060;13.786;2023-04-25T10:05:19;9.95;;;3.92;;
74328;SDS011;62745;51.060;13.786;2023-04-25T10:07:45;8.70;;;4.28;;
74328;SDS011;62745;51.060;13.786;2023-04-25T10:10:11;8.70;;;4.45;;
74328;SDS011;62745;51.060;13.786;2023-04-25T10:12:38;7.90;;;3.55;;
74328;SDS011;62745;51.060;13.786;2023-04-25T10:15:05;8.75;;;2.70;;
74328;SDS011;62745;51.060;13.786;2023-04-25T10:17:32;6.55;;;2.45;;
74328;SDS011;62745;51.060;13.786;2023-04-25T10:19:59;4.80;;;2.95;;
74328;SDS011;62745;51.060;13.786;2023-04-25T10:25:02;6.82;;;3.20;;
74328;SDS011;62745;51.060;13.786;2023-04-25T10:27:30;5.07;;;2.25;;
74328;SDS011;62745;51.060;13.786;2023-04-25T10:32:41;7.72;;;3.03;;
74328;SDS011;62745;51.060;13.786;2023-04-25T10:35:16;5.50;;;2.70;;
74328;SDS011;62745;51.060;13.786;2023-04-25T10:38:05;6.97;;;2.80;;
74328;SDS011;62745;51.060;13.786;2023-04-25T10:40:34;7.85;;;3.33;;
74328;SDS011;62745;51.060;13.786;2023-04-25T10:45:55;6.82;;;3.28;;
74328;SDS011;62745;51.060;13.786;2023-04-25T10:48:30;6.70;;;2.90;;
74328;SDS011;62745;51.060;13.786;2023-04-25T10:51:08;6.78;;;4.03;;
74328;SDS011;62745;51.060;13.786;2023-04-25T10:53:34;6.15;;;3.65;;
74328;SDS011;62745;51.060;13.786;2023-04-25T10:55:59;10.52;;;3.67;;
74328;SDS011;62745;51.060;13.786;2023-04-25T10:58:25;6.30;;;3.00;;
74328;SDS011;62745;51.060;13.786;2023-04-25T11:00:51;6.22;;;3.08;;
74328;SDS011;62745;51.060;13.786;2023-04-25T11:03:16;7.10;;;3.38;;
74328;SDS011;62745;51.060;13.786;2023-04-25T11:05:42;11.13;;;3.67;;
74328;SDS011;62745;51.060;13.786;2023-04-25T11:08:11;8.98;;;4.00;;
74328;SDS011;62745;51.060;13.786;2023-04-25T11:10:36;8.02;;;3.67;;
74328;SDS011;62745;51.060;13.786;2023-04-25T11:13:04;7.13;;;3.95;;
74328;SDS011;62745;51.060;13.786;2023-04-25T11:15:30;6.97;;;3.28;;
74328;SDS011;62745;51.060;13.786;2023-04-25T11:17:55;9.13;;;3.72;;
74328;SDS011;62745;51.060;13.786;2023-04-25T11:20:21;6.82;;;3.20;;
74328;SDS011;62745;51.060;13.786;2023-04-25T11:22:47;8.10;;;3.70;;
74328;SDS011;62745;51.060;13.786;2023-04-25T11:25:15;10.18;;;3.78;;
74328;SDS011;62745;51.060;13.786;2023-04-25T11:27:50;8.50;;;3.55;;
74328;SDS011;62745;51.060;13.786;2023-04-25T11:30:21;6.88;;;3.20;;
74328;SDS011;62745;51.060;13.786;2023-04-25T11:32:47;8.38;;;3.38;;
74328;SDS011;62745;51.060;13.786;2023-04-25T11:35:12;10.93;;;3.20;;
74328;SDS011;62745;51.060;13.786;2023-04-25T11:37:41;6.35;;;2.95;;
74328;SDS011;62745;51.060;13.786;2023-04-25T11:40:08;9.40;;;2.78;;
74328;SDS011;62745;51.060;13.786;2023-04-25T11:42:36;7.70;;;2.80;;
74328;SDS011;62745;51.060;13.786;2023-04-25T11:45:01;4.97;;;1.67;;
74328;SDS011;62745;51.060;13.786;2023-04-25T11:47:29;2.47;;;1.05;;
74328;SDS011;62745;51.060;13.786;2023-04-25T11:49:55;4.68;;;1.40;;
74328;SDS011;62745;51.060;13.786;2023-04-25T11:52:20;3.90;;;1.30;;
74328;SDS011;62745;51.060;13.786;2023-04-25T11:54:45;5.07;;;1.40;;
74328;SDS011;62745;51.060;13.786;2023-04-25T11:57:11;3.47;;;1.38;;
74328;SDS011;62745;51.060;13.786;2023-04-25T11:59:36;7.77;;;1.47;;
74328;SDS011;62745;51.060;13.786;2023-04-25T12:02:02;3.83;;;1.35;;
74328;SDS011;62745;51.060;13.786;2023-04-25T12:04:29;3.63;;;1.63;;
74328;SDS011;62745;51.060;13.786;2023-04-25T12:06:55;5.07;;;2.00;;
74328;SDS011;62745;51.060;13.786;2023-04-25T12:09:21;4.30;;;1.50;;
74328;SDS011;62745;51.060;13.786;2023-04-25T12:11:54;4.90;;;1.58;;
74328;SDS011;62745;51.060;13.786;2023-04-25T12:14:21;5.28;;;1.80;;
74328;SDS011;62745;51.060;13.786;2023-04-25T12:16:52;7.50;;;2.33;;
74328;SDS011;62745;51.060;13.786;2023-04-25T12:19:18;4.72;;;2.05;;
74328;SDS011;62745;51.060;13.786;2023-04-25T12:21:45;5.95;;;1.70;;
74328;SDS011;62745;51.060;13.786;2023-04-25T12:29:25;7.60;;;2.00;;
74328;SDS011;62745;51.060;13.786;2023-04-25T12:31:53;12.77;;;2.70;;
74328;SDS011;62745;51.060;13.786;2023-04-25T12:34:19;4.63;;;2.05;;
74328;SDS011;62745;51.060;13.786;2023-04-25T12:36:45;5.32;;;1.90;;
74328;SDS011;62745;51.060;13.786;2023-04-25T12:39:29;8.75;;;2.85;;
74328;SDS011;62745;51.060;13.786;2023-04-25T12:41:54;9.52;;;2.03;;
74328;SDS011;62745;51.060;13.786;2023-04-25T12:44:19;4.63;;;2.10;;
74328;SDS011;62745;51.060;13.786;2023-04-25T12:46:45;6.72;;;1.98;;
74328;SDS011;62745;51.060;13.786;2023-04-25T12:49:10;5.88;;;2.45;;
74328;SDS011;62745;51.060;13.786;2023-04-25T12:51:36;11.87;;;2.90;;
74328;SDS011;62745;51.060;13.786;2023-04-25T12:54:02;5.75;;;2.30;;
74328;SDS011;62745;51.060;13.786;2023-04-25T12:56:29;5.53;;;2.10;;
74328;SDS011;62745;51.060;13.786;2023-04-25T12:58:55;8.10;;;2.50;;
74328;SDS011;62745;51.060;13.786;2023-04-25T13:01:21;7.47;;;2.85;;
74328;SDS011;62745;51.060;13.786;2023-04-25T13:03:46;10.77;;;2.55;;
74328;SDS011;62745;51.060;13.786;2023-04-25T13:06:13;8.77;;;2.58;;
74328;SDS011;62745;51.060;13.786;2023-04-25T13:08:38;8.82;;;2.88;;
74328;SDS011;62745;51.060;13.786;2023-04-25T13:11:04;8.73;;;3.63;;
74328;SDS011;62745;51.060;13.786;2023-04-25T13:13:30;5.03;;;2.03;;
74328;SDS011;62745;51.060;13.786;2023-04-25T13:15:56;8.43;;;2.80;;
74328;SDS011;62745;51.060;13.786;2023-04-25T13:18:22;6.53;;;2.80;;
74328;SDS011;62745;51.060;13.786;2023-04-25T13:20:51;8.82;;;3.05;;
74328;SDS011;62745;51.060;13.786;2023-04-25T13:23:17;12.55;;;3.63;;
74328;SDS011;62745;51.060;13.786;2023-04-25T13:25:42;8.27;;;2.83;;
74328;SDS011;62745;51.060;13.786;2023-04-25T13:28:07;12.07;;;4.37;;
74328;SDS011;62745;51.060;13.786;2023-04-25T13:30:33;11.23;;;3.20;;
74328;SDS011;62745;51.060;13.786;2023-04-25T13:32:58;9.20;;;2.77;;
74328;SDS011;62745;51.060;13.786;2023-04-25T13:35:27;11.93;;;3.25;;
74328;SDS011;62745;51.060;13.786;2023-04-25T13:37:53;7.68;;;2.85;;
74328;SDS011;62745;51.060;13.786;2023-04-25T13:40:19;12.37;;;2.90;;
74328;SDS011;62745;51.060;13.786;2023-04-25T13:42:44;7.33;;;3.37;;
74328;SDS011;62745;51.060;13.786;2023-04-25T13:45:10;12.85;;;3.00;;
74328;SDS011;62745;51.060;13.786;2023-04-25T13:47:35;5.88;;;2.30;;
74328;SDS011;62745;51.060;13.786;2023-04-25T13:50:01;8.57;;;2.90;;
74328;SDS011;62745;51.060;13.786;2023-04-25T13:52:28;8.45;;;2.30;;
74328;SDS011;62745;51.060;13.786;2023-04-25T13:54:53;11.85;;;2.42;;
74328;SDS011;62745;51.060;13.786;2023-04-25T13:57:19;11.97;;;2.47;;
74328;SDS011;62745;51.060;13.786;2023-04-25T13:59:44;7.30;;;2.47;;
74328;SDS011;62745;51.060;13.786;2023-04-25T14:02:10;12.30;;;3.15;;
74328;SDS011;62745;51.060;13.786;2023-04-25T14:04:36;7.53;;;2.75;;
74328;SDS011;62745;51.060;13.786;2023-04-25T14:07:02;7.50;;;3.47;;
74328;SDS011;62745;51.060;13.786;2023-04-25T14:09:28;7.53;;;3.30;;
74328;SDS011;62745;51.060;13.786;2023-04-25T14:11:54;7.97;;;3.00;;
74328;SDS011;62745;51.060;13.786;2023-04-25T14:14:20;8.35;;;2.63;;
74328;SDS011;62745;51.060;13.786;2023-04-25T14:16:47;5.20;;;2.25;;
74328;SDS011;62745;51.060;13.786;2023-04-25T14:19:13;8.35;;;2.47;;
74328;SDS011;62745;51.060;13.786;2023-04-25T14:21:41;14.10;;;3.10;;
74328;SDS011;62745;51.060;13.786;2023-04-25T14:24:06;11.45;;;2.83;;
74328;SDS011;62745;51.060;13.786;2023-04-25T14:26:33;9.77;;;3.20;;
74328;SDS011;62745;51.060;13.786;2023-04-25T14:28:58;11.77;;;3.08;;
74328;SDS011;62745;51.060;13.786;2023-04-25T14:31:23;11.90;;;2.90;;
74328;SDS011;62745;51.060;13.786;2023-04-25T14:33:49;7.68;;;2.38;;
74328;SDS011;62745;51.060;13.786;2023-04-25T14:36:15;8.82;;;3.22;;
74328;SDS011;62745;51.060;13.786;2023-04-25T14:38:42;10.13;;;3.17;;
74328;SDS011;62745;51.060;13.786;2023-04-25T14:41:11;11.00;;;2.75;;